createdAt,value
2018-08-11T00:00:28.200Z,1010.91
2018-08-11T00:01:08.569Z,1010.87
2018-08-11T00:01:49.024Z,1010.91
2018-08-11T00:02:29.336Z,1010.89
2018-08-11T00:03:09.837Z,1010.94
2018-08-11T00:03:50.156Z,1010.93
2018-08-11T00:04:30.610Z,1010.89
2018-08-11T00:05:10.983Z,1010.89
2018-08-11T00:08:13.293Z,1010.89
2018-08-11T00:08:53.474Z,1010.88
2018-08-11T00:09:33.912Z,1010.89
2018-08-11T00:10:14.316Z,1010.86
2018-08-11T00:10:54.729Z,1010.85
2018-08-11T00:11:35.124Z,1010.88
2018-08-11T00:12:15.551Z,1010.86
2018-08-11T00:12:55.949Z,1010.91
2018-08-11T00:13:36.365Z,1010.84
2018-08-11T00:14:16.795Z,1010.84
2018-08-11T00:14:57.165Z,1010.83
2018-08-11T00:15:37.575Z,1010.86
2018-08-11T00:16:17.995Z,1010.82
2018-08-11T00:16:58.520Z,1010.8
2018-08-11T00:17:38.914Z,1010.76
2018-08-11T00:18:19.321Z,1010.82
2018-08-11T00:18:59.741Z,1010.82
2018-08-11T00:19:40.212Z,1010.81
2018-08-11T00:20:20.689Z,1010.81
2018-08-11T00:21:01.131Z,1010.86
2018-08-11T00:21:41.497Z,1010.82
2018-08-11T00:22:21.933Z,1010.8
2018-08-11T00:23:02.348Z,1010.81
2018-08-11T00:23:42.730Z,1010.82
2018-08-11T00:24:23.102Z,1010.83
2018-08-11T00:25:03.504Z,1010.85
2018-08-11T00:27:21.616Z,1010.82
2018-08-11T00:28:04.660Z,1010.88
2018-08-11T00:28:45.035Z,1010.86
2018-08-11T00:29:25.464Z,1010.84
2018-08-11T00:30:05.880Z,1010.87
2018-08-11T00:30:46.280Z,1010.85
2018-08-11T00:31:26.645Z,1010.83
2018-08-11T00:33:44.844Z,1010.84
2018-08-11T00:34:25.058Z,1010.83
2018-08-11T00:35:05.477Z,1010.82
2018-08-11T00:35:45.898Z,1010.84
2018-08-11T00:36:26.332Z,1010.87
2018-08-11T00:37:06.732Z,1010.88
2018-08-11T00:37:47.038Z,1010.87
2018-08-11T00:38:27.436Z,1010.87
2018-08-11T00:39:07.841Z,1010.88
2018-08-11T00:39:48.260Z,1010.89
2018-08-11T00:40:29.154Z,1010.83
2018-08-11T00:41:09.512Z,1010.91
2018-08-11T00:41:49.893Z,1010.89
2018-08-11T00:43:42.884Z,1010.94
2018-08-11T00:44:23.014Z,1010.89
2018-08-11T00:45:03.408Z,1010.88
2018-08-11T00:45:43.912Z,1010.87
2018-08-11T00:46:24.368Z,1010.87
2018-08-11T00:47:04.806Z,1010.9
2018-08-11T00:49:20.323Z,1010.89
2018-08-11T00:50:01.774Z,1010.92
2018-08-11T00:50:42.181Z,1010.98
2018-08-11T00:51:22.662Z,1010.97
2018-08-11T00:52:03.176Z,1010.89
2018-08-11T00:52:43.731Z,1010.94
2018-08-11T00:53:24.630Z,1010.9
2018-08-11T00:54:05.052Z,1010.96
2018-08-11T00:55:58.710Z,1010.98
2018-08-11T00:56:38.697Z,1010.91
2018-08-11T00:57:19.119Z,1010.99
2018-08-11T00:57:59.543Z,1010.93
2018-08-11T00:58:39.930Z,1010.96
2018-08-11T00:59:20.378Z,1010.99
2018-08-11T01:00:00.785Z,1011.03
2018-08-11T01:00:41.182Z,1011.02
2018-08-11T01:01:22.503Z,1011.02
2018-08-11T01:02:02.861Z,1011
2018-08-11T01:02:43.248Z,1011.01
2018-08-11T01:03:23.814Z,1011.04
2018-08-11T01:04:04.295Z,1011.04
2018-08-11T01:04:44.702Z,1011.04
2018-08-11T01:05:25.386Z,1011.02
2018-08-11T01:06:05.691Z,1011.03
2018-08-11T01:06:46.100Z,1011.13
2018-08-11T01:07:26.637Z,1011.08
2018-08-11T01:08:07.133Z,1011.06
2018-08-11T01:08:47.609Z,1010.99
2018-08-11T01:09:28.014Z,1011.07
2018-08-11T01:12:39.275Z,1011.04
2018-08-11T01:14:51.867Z,1011.05
2018-08-11T01:15:32.275Z,1011.04
2018-08-11T01:16:12.666Z,1011.04
2018-08-11T01:16:53.073Z,1011.07
2018-08-11T01:17:33.484Z,1011.04
2018-08-11T01:18:14.479Z,1011.06
2018-08-11T01:20:29.557Z,1011.09
2018-08-11T01:21:09.863Z,1011.1
2018-08-11T01:21:50.306Z,1011.1
2018-08-11T01:22:30.838Z,1011.13
2018-08-11T01:23:11.219Z,1011.05
2018-08-11T01:23:51.593Z,1011.11
2018-08-11T01:25:51.917Z,1011.12
2018-08-11T01:26:32.186Z,1011.12
2018-08-11T01:27:13.072Z,1011.14
2018-08-11T01:27:53.924Z,1011.13
2018-08-11T01:28:34.259Z,1011.19
2018-08-11T01:29:14.673Z,1011.17
2018-08-11T01:29:55.192Z,1011.2
2018-08-11T01:30:35.533Z,1011.15
2018-08-11T01:31:16.097Z,1011.18
2018-08-11T01:31:56.546Z,1011.22
2018-08-11T01:32:36.910Z,1011.22
2018-08-11T01:33:17.506Z,1011.2
2018-08-11T01:33:58.044Z,1011.25
2018-08-11T01:34:38.667Z,1011.3
2018-08-11T01:35:19.030Z,1011.31
2018-08-11T01:35:59.443Z,1011.36
2018-08-11T01:36:39.915Z,1011.38
2018-08-11T01:37:20.452Z,1011.37
2018-08-11T01:38:01.096Z,1011.44
2018-08-11T01:38:41.651Z,1011.56
2018-08-11T01:39:22.125Z,1011.27
2018-08-11T01:40:02.544Z,1011.38
2018-08-11T01:40:43.126Z,1011.64
2018-08-11T01:41:23.755Z,1011.71
2018-08-11T01:42:04.203Z,1011.66
2018-08-11T01:42:44.828Z,1011.49
2018-08-11T01:43:25.014Z,1011.59
2018-08-11T01:44:05.584Z,1011.64
2018-08-11T01:44:45.989Z,1011.66
2018-08-11T01:45:26.744Z,1011.63
2018-08-11T01:46:07.219Z,1011.68
2018-08-11T01:46:47.494Z,1011.66
2018-08-11T01:47:27.868Z,1011.54
2018-08-11T01:48:08.361Z,1011.7
2018-08-11T01:48:48.870Z,1011.69
2018-08-11T01:49:29.686Z,1011.69
2018-08-11T01:50:10.036Z,1011.72
2018-08-11T01:50:50.701Z,1011.74
2018-08-11T01:51:31.282Z,1011.69
2018-08-11T01:54:01.315Z,1011.69
2018-08-11T01:54:41.439Z,1011.69
2018-08-11T01:55:21.750Z,1011.74
2018-08-11T01:56:02.291Z,1011.69
2018-08-11T01:56:42.733Z,1011.73
2018-08-11T01:57:23.443Z,1011.71
2018-08-11T01:58:03.840Z,1011.71
2018-08-11T01:58:44.324Z,1011.64
2018-08-11T01:59:24.873Z,1011.72
2018-08-11T02:00:05.182Z,1011.73
2018-08-11T02:00:45.672Z,1011.69
2018-08-11T02:01:26.443Z,1011.7
2018-08-11T02:02:06.999Z,1011.73
2018-08-11T02:02:47.923Z,1011.74
2018-08-11T02:03:28.496Z,1011.81
2018-08-11T02:04:09.074Z,1011.79
2018-08-11T02:04:49.649Z,1011.8
2018-08-11T02:05:30.056Z,1011.81
2018-08-11T02:06:10.407Z,1011.81
2018-08-11T02:06:51.262Z,1011.83
2018-08-11T02:07:32.988Z,1011.84
2018-08-11T02:08:13.292Z,1011.8
2018-08-11T02:08:54.972Z,1011.85
2018-08-11T02:09:34.799Z,1011.86
2018-08-11T02:10:15.222Z,1011.87
2018-08-11T02:10:55.724Z,1011.84
2018-08-11T02:11:36.530Z,1011.86
2018-08-11T02:12:17.005Z,1011.87
2018-08-11T02:12:57.906Z,1011.89
2018-08-11T02:13:38.419Z,1011.79
2018-08-11T02:14:18.952Z,1011.86
2018-08-11T02:14:59.308Z,1011.86
2018-08-11T02:15:39.702Z,1011.8
2018-08-11T02:16:20.285Z,1011.83
2018-08-11T02:17:00.653Z,1011.76
2018-08-11T02:17:41.065Z,1011.83
2018-08-11T02:18:21.630Z,1011.78
2018-08-11T02:19:01.901Z,1011.76
2018-08-11T02:19:42.358Z,1011.78
2018-08-11T02:20:22.728Z,1011.74
2018-08-11T02:21:03.440Z,1011.76
2018-08-11T02:21:43.824Z,1011.72
2018-08-11T02:22:24.322Z,1011.73
2018-08-11T02:23:04.728Z,1011.65
2018-08-11T02:23:46.207Z,1011.67
2018-08-11T02:24:26.133Z,1011.63
2018-08-11T02:25:06.599Z,1011.63
2018-08-11T02:25:46.981Z,1011.66
2018-08-11T02:26:27.403Z,1011.66
2018-08-11T02:28:45.443Z,1011.65
2018-08-11T02:29:25.695Z,1011.65
2018-08-11T02:30:06.434Z,1011.63
2018-08-11T02:30:46.822Z,1011.68
2018-08-11T02:31:28.449Z,1011.66
2018-08-11T02:32:08.852Z,1011.69
2018-08-11T02:32:49.553Z,1011.69
2018-08-11T02:33:29.847Z,1011.72
2018-08-11T02:34:10.223Z,1011.7
2018-08-11T02:34:50.635Z,1011.69
2018-08-11T02:37:03.473Z,1011.65
2018-08-11T02:37:43.925Z,1011.64
2018-08-11T02:38:24.343Z,1011.66
2018-08-11T02:39:04.739Z,1011.67
2018-08-11T02:39:45.167Z,1011.68
2018-08-11T02:40:25.624Z,1011.63
2018-08-11T02:41:05.963Z,1011.65
2018-08-11T02:43:33.911Z,1011.68
2018-08-11T02:44:14.188Z,1011.68
2018-08-11T02:44:54.601Z,1011.68
2018-08-11T02:45:34.993Z,1011.71
2018-08-11T02:46:15.399Z,1011.69
2018-08-11T02:46:55.817Z,1011.72
2018-08-11T02:47:36.238Z,1011.66
2018-08-11T02:48:16.696Z,1011.67
2018-08-11T02:48:57.123Z,1011.72
2018-08-11T02:49:37.528Z,1011.71
2018-08-11T02:50:17.952Z,1011.71
2018-08-11T02:50:58.355Z,1011.74
2018-08-11T02:51:38.780Z,1011.67
2018-08-11T02:52:19.143Z,1011.71
2018-08-11T02:52:59.549Z,1011.75
2018-08-11T02:53:39.954Z,1011.74
2018-08-11T02:54:20.365Z,1011.73
2018-08-11T02:55:00.735Z,1011.72
2018-08-11T02:55:41.149Z,1011.72
2018-08-11T02:56:21.569Z,1011.71
2018-08-11T02:57:01.945Z,1011.72
2018-08-11T02:57:42.405Z,1011.74
2018-08-11T02:58:22.716Z,1011.72
2018-08-11T02:59:03.132Z,1011.72
2018-08-11T03:00:55.992Z,1011.76
2018-08-11T03:01:36.418Z,1011.75
2018-08-11T03:02:16.851Z,1011.69
2018-08-11T03:02:57.244Z,1011.68
2018-08-11T03:03:37.583Z,1011.65
2018-08-11T03:04:17.999Z,1011.66
2018-08-11T03:04:58.421Z,1011.66
2018-08-11T03:05:38.837Z,1011.67
2018-08-11T03:06:19.238Z,1011.61
2018-08-11T03:08:12.109Z,1011.62
2018-08-11T03:08:52.381Z,1011.64
2018-08-11T03:09:32.770Z,1011.62
2018-08-11T03:10:13.198Z,1011.65
2018-08-11T03:10:53.617Z,1011.63
2018-08-11T03:11:34.041Z,1011.68
2018-08-11T03:12:14.449Z,1011.67
2018-08-11T03:12:54.867Z,1011.68
2018-08-11T03:13:35.289Z,1011.67
2018-08-11T03:14:15.667Z,1011.69
2018-08-11T03:14:56.101Z,1011.69
2018-08-11T03:15:36.464Z,1011.72
2018-08-11T03:16:16.887Z,1011.75
2018-08-11T03:16:57.283Z,1011.73
2018-08-11T03:17:37.684Z,1011.68
2018-08-11T03:18:18.082Z,1011.72
2018-08-11T03:18:58.480Z,1011.71
2018-08-11T03:19:38.887Z,1011.67
2018-08-11T03:20:19.276Z,1011.71
2018-08-11T03:20:59.709Z,1011.7
2018-08-11T03:21:40.110Z,1011.69
2018-08-11T03:22:20.511Z,1011.67
2018-08-11T03:23:00.968Z,1011.68
2018-08-11T03:23:41.325Z,1011.69
2018-08-11T03:24:21.770Z,1011.7
2018-08-11T03:25:02.144Z,1011.68
2018-08-11T03:25:42.564Z,1011.67
2018-08-11T03:26:22.999Z,1011.65
2018-08-11T03:27:03.372Z,1011.7
2018-08-11T03:27:43.801Z,1011.69
2018-08-11T03:28:24.220Z,1011.69
2018-08-11T03:29:04.635Z,1011.75
2018-08-11T03:29:45.049Z,1011.73
2018-08-11T03:32:03.354Z,1011.8
2018-08-11T03:32:43.373Z,1011.8
2018-08-11T03:33:23.782Z,1011.82
2018-08-11T03:34:04.145Z,1011.83
2018-08-11T03:34:44.542Z,1011.81
2018-08-11T03:35:24.962Z,1011.81
2018-08-11T03:36:05.363Z,1011.86
2018-08-11T03:36:45.744Z,1011.83
2018-08-11T03:37:26.165Z,1011.83
2018-08-11T03:38:06.511Z,1011.86
2018-08-11T03:38:46.919Z,1011.85
2018-08-11T03:39:27.312Z,1011.85
2018-08-11T03:40:07.752Z,1011.88
2018-08-11T03:40:48.111Z,1011.92
2018-08-11T03:41:28.532Z,1011.91
2018-08-11T03:42:08.971Z,1011.96
2018-08-11T03:42:49.378Z,1011.98
2018-08-11T03:43:29.726Z,1011.99
2018-08-11T03:44:10.110Z,1011.95
2018-08-11T03:44:50.575Z,1011.99
2018-08-11T03:45:30.998Z,1012.02
2018-08-11T03:46:11.483Z,1012.02
2018-08-11T03:46:51.789Z,1012.03
2018-08-11T03:47:32.180Z,1012.05
2018-08-11T03:48:12.628Z,1012.05
2018-08-11T03:48:53.000Z,1012.08
2018-08-11T03:49:33.402Z,1012.05
2018-08-11T03:50:13.854Z,1012.05
2018-08-11T03:50:54.252Z,1012.08
2018-08-11T03:51:34.609Z,1012.08
2018-08-11T03:52:15.075Z,1012.08
2018-08-11T03:52:55.467Z,1012.07
2018-08-11T03:53:35.849Z,1012.04
2018-08-11T03:54:16.251Z,1012.08
2018-08-11T03:54:56.651Z,1012.04
2018-08-11T03:55:37.065Z,1012.04
2018-08-11T03:56:17.515Z,1012.04
2018-08-11T03:56:57.890Z,1012.07
2018-08-11T03:57:38.303Z,1012.04
2018-08-11T03:58:18.715Z,1012.09
2018-08-11T03:58:59.161Z,1012.1
2018-08-11T03:59:39.563Z,1012.11
2018-08-11T04:00:19.959Z,1012.09
2018-08-11T04:01:00.386Z,1012.11
2018-08-11T04:01:40.790Z,1012.05
2018-08-11T04:02:21.216Z,1012.06
2018-08-11T04:03:01.663Z,1012.04
2018-08-11T04:03:42.028Z,1012.04
2018-08-11T04:04:22.456Z,1012.05
2018-08-11T04:05:02.881Z,1012.08
2018-08-11T04:05:43.300Z,1012.08
2018-08-11T04:08:01.233Z,1012
2018-08-11T04:08:41.524Z,1012.01
2018-08-11T04:09:21.967Z,1011.98
2018-08-11T04:10:02.352Z,1011.96
2018-08-11T04:10:42.799Z,1011.95
2018-08-11T04:13:10.709Z,1012.05
2018-08-11T04:13:51.399Z,1012.04
2018-08-11T04:14:31.804Z,1012.02
2018-08-11T04:15:12.214Z,1012.03
2018-08-11T04:15:52.634Z,1012.1
2018-08-11T04:16:33.054Z,1012.1
2018-08-11T04:17:13.438Z,1012.09
2018-08-11T04:17:53.844Z,1012.13
2018-08-11T04:18:34.246Z,1012.14
2018-08-11T04:19:14.685Z,1012.16
2018-08-11T04:19:55.034Z,1012.16
2018-08-11T04:20:35.433Z,1012.19
2018-08-11T04:21:15.828Z,1012.19
2018-08-11T04:21:56.315Z,1012.22
2018-08-11T04:22:36.686Z,1012.22
2018-08-11T04:23:17.069Z,1012.24
2018-08-11T04:23:57.494Z,1012.16
2018-08-11T04:24:37.868Z,1012.21
2018-08-11T04:25:18.322Z,1012.23
2018-08-11T04:25:58.668Z,1012.24
2018-08-11T04:26:39.107Z,1012.22
2018-08-11T04:27:19.510Z,1012.23
2018-08-11T04:27:59.902Z,1012.26
2018-08-11T11:08:27.448Z,1013.89
2018-08-11T11:09:07.562Z,1013.91
2018-08-11T11:09:47.931Z,1013.88
2018-08-11T11:10:28.533Z,1013.83
2018-08-11T11:11:08.949Z,1013.85
2018-08-11T11:11:49.385Z,1013.89
2018-08-11T11:12:29.811Z,1013.82
2018-08-11T11:13:10.235Z,1013.84
2018-08-11T11:13:50.636Z,1013.81
2018-08-11T11:14:31.327Z,1013.85
2018-08-11T11:15:11.631Z,1013.83
2018-08-11T11:15:52.053Z,1013.88
2018-08-11T11:16:32.456Z,1013.85
2018-08-11T11:17:13.009Z,1013.84
2018-08-11T11:17:53.390Z,1013.81
2018-08-11T11:18:33.799Z,1013.8
2018-08-11T11:19:14.208Z,1013.84
2018-08-11T11:19:54.632Z,1013.8
2018-08-11T11:20:35.095Z,1013.81
2018-08-11T11:21:15.476Z,1013.84
2018-08-11T11:21:55.884Z,1013.88
2018-08-11T11:22:36.354Z,1013.86
2018-08-11T11:23:16.847Z,1013.84
2018-08-11T11:23:57.259Z,1013.81
2018-08-11T11:24:37.766Z,1013.84
2018-08-11T11:25:18.067Z,1013.8
2018-08-11T11:25:58.569Z,1013.81
2018-08-11T11:26:39.056Z,1013.8
2018-08-11T11:27:19.448Z,1013.78
2018-08-11T11:28:00.085Z,1013.84
2018-08-11T11:28:40.572Z,1013.8
2018-08-11T11:29:21.150Z,1013.84
2018-08-11T11:31:50.976Z,1013.85
2018-08-11T11:32:32.110Z,1013.83
2018-08-11T11:35:01.811Z,1013.84
2018-08-11T11:35:46.023Z,1013.88
2018-08-11T11:36:27.224Z,1013.91
2018-08-11T11:37:07.472Z,1013.89
2018-08-11T11:37:47.902Z,1013.93
2018-08-11T11:38:28.379Z,1013.93
2018-08-11T11:39:08.745Z,1013.87
2018-08-11T11:39:49.172Z,1013.89
2018-08-11T11:40:29.619Z,1013.87
2018-08-11T11:41:10.087Z,1013.8
2018-08-11T11:41:50.477Z,1013.91
2018-08-11T11:42:30.902Z,1013.9
2018-08-11T11:43:11.570Z,1013.89
2018-08-11T11:43:51.961Z,1013.93
2018-08-11T11:44:32.502Z,1013.89
2018-08-11T11:45:12.927Z,1013.95
2018-08-11T11:45:53.355Z,1013.97
2018-08-11T11:46:33.753Z,1013.93
2018-08-11T11:47:14.192Z,1013.96
2018-08-11T11:47:54.621Z,1013.95
2018-08-11T11:48:35.088Z,1013.97
2018-08-11T11:49:15.477Z,1013.92
2018-08-11T11:49:56.011Z,1013.96
2018-08-11T11:50:36.310Z,1013.96
2018-08-11T11:51:16.734Z,1014.01
2018-08-11T11:51:57.207Z,1013.99
2018-08-11T11:52:39.209Z,1013.95
2018-08-11T11:53:19.584Z,1014
2018-08-11T11:54:00.007Z,1013.91
2018-08-11T11:54:40.700Z,1013.96
2018-08-11T11:55:21.009Z,1014
2018-08-11T11:56:01.672Z,1013.95
2018-08-11T11:56:42.129Z,1013.92
2018-08-11T11:57:22.606Z,1013.95
2018-08-11T11:59:42.132Z,1013.89
2018-08-11T12:00:20.830Z,1014.01
2018-08-11T12:01:01.254Z,1013.94
2018-08-11T12:01:41.648Z,1013.85
2018-08-11T12:02:23.722Z,1013.96
2018-08-11T12:03:04.442Z,1013.9
2018-08-11T12:03:44.826Z,1013.98
2018-08-11T12:04:25.250Z,1013.96
2018-08-11T12:05:05.677Z,1013.92
2018-08-11T12:05:48.805Z,1013.85
2018-08-11T12:06:29.207Z,1014.02
2018-08-11T12:07:09.646Z,1013.95
2018-08-11T12:07:50.161Z,1013.93
2018-08-11T12:09:56.196Z,1013.92
2018-08-11T12:10:36.525Z,1013.86
2018-08-11T12:11:16.907Z,1013.83
2018-08-11T12:11:57.354Z,1013.82
2018-08-11T12:12:38.834Z,1013.76
2018-08-11T12:13:19.481Z,1013.78
2018-08-11T12:13:59.865Z,1013.79
2018-08-11T12:14:40.258Z,1013.79
2018-08-11T12:15:20.744Z,1013.78
2018-08-11T12:16:01.530Z,1013.75
2018-08-11T12:19:21.671Z,1013.7
2018-08-11T12:20:01.080Z,1013.7
2018-08-11T12:20:41.642Z,1013.7
2018-08-11T12:21:22.019Z,1013.77
2018-08-11T12:22:02.536Z,1013.78
2018-08-11T12:22:43.063Z,1013.8
2018-08-11T12:23:23.568Z,1013.75
2018-08-11T12:25:21.581Z,1013.8
2018-08-11T12:26:02.575Z,1013.83
2018-08-11T12:26:42.987Z,1013.89
2018-08-11T12:27:23.496Z,1013.78
2018-08-11T12:28:04.072Z,1013.83
2018-08-11T12:28:44.447Z,1013.91
2018-08-11T12:29:24.884Z,1013.84
2018-08-11T12:30:05.292Z,1013.85
2018-08-11T12:30:45.748Z,1013.92
2018-08-11T12:31:26.303Z,1013.86
2018-08-11T12:32:06.729Z,1013.91
2018-08-11T12:32:47.402Z,1013.86
2018-08-11T12:33:27.798Z,1013.88
2018-08-11T12:34:08.179Z,1013.87
2018-08-11T12:34:48.725Z,1013.83
2018-08-11T12:35:29.194Z,1013.81
2018-08-11T12:36:09.931Z,1013.82
2018-08-11T12:36:50.301Z,1013.83
2018-08-11T12:37:30.691Z,1013.79
2018-08-11T12:38:11.278Z,1013.79
2018-08-11T12:38:51.733Z,1013.79
2018-08-11T12:39:32.120Z,1013.79
2018-08-11T12:40:12.715Z,1013.64
2018-08-11T12:42:41.006Z,1013.69
2018-08-11T12:43:21.384Z,1013.69
2018-08-11T12:44:01.895Z,1013.62
2018-08-11T12:44:42.648Z,1013.7
2018-08-11T12:45:22.900Z,1013.73
2018-08-11T12:46:03.471Z,1013.65
2018-08-11T12:46:43.851Z,1013.72
2018-08-11T12:47:24.332Z,1013.71
2018-08-11T12:48:04.722Z,1013.62
2018-08-11T12:48:45.094Z,1013.67
2018-08-11T12:49:25.544Z,1013.68
2018-08-11T12:50:06.599Z,1013.67
2018-08-11T12:50:46.945Z,1013.71
2018-08-11T12:51:27.433Z,1013.73
2018-08-11T12:52:08.231Z,1013.74
2018-08-11T12:52:49.146Z,1013.77
2018-08-11T12:53:29.459Z,1013.66
2018-08-11T12:54:10.112Z,1013.68
2018-08-11T12:54:51.710Z,1013.6
2018-08-11T12:55:32.107Z,1013.7
2018-08-11T12:56:12.530Z,1013.71
2018-08-11T12:56:53.057Z,1013.63
2018-08-11T12:57:33.391Z,1013.66
2018-08-11T12:58:14.017Z,1013.65
2018-08-11T12:58:54.339Z,1013.64
2018-08-11T12:59:35.148Z,1013.59
2018-08-11T13:00:15.797Z,1013.55
2018-08-11T13:00:56.120Z,1013.55
2018-08-11T13:01:36.610Z,1013.57
2018-08-11T13:02:17.090Z,1013.57
2018-08-11T13:02:57.419Z,1013.6
2018-08-11T13:03:38.034Z,1013.63
2018-08-11T13:04:18.511Z,1013.57
2018-08-11T13:04:59.367Z,1013.65
2018-08-11T13:05:39.395Z,1013.58
2018-08-11T13:06:19.819Z,1013.58
2018-08-11T13:07:00.509Z,1013.51
2018-08-11T13:07:40.784Z,1013.61
2018-08-11T13:08:21.263Z,1013.69
2018-08-11T13:09:01.680Z,1013.69
2018-08-11T13:09:42.110Z,1013.57
2018-08-11T13:11:40.709Z,1013.5
2018-08-11T13:12:20.909Z,1013.49
2018-08-11T13:13:01.323Z,1013.5
2018-08-11T13:13:41.755Z,1013.47
2018-08-11T13:14:22.192Z,1013.46
2018-08-11T13:15:03.037Z,1013.49
2018-08-11T13:15:43.894Z,1013.5
2018-08-11T13:19:24.731Z,1013.48
2018-08-11T13:20:03.496Z,1013.53
2018-08-11T13:20:44.633Z,1013.59
2018-08-11T13:21:24.883Z,1013.59
2018-08-11T13:22:05.415Z,1013.56
2018-08-11T13:22:48.684Z,1013.54
2018-08-11T13:23:28.982Z,1013.55
2018-08-11T13:24:09.443Z,1013.52
2018-08-11T13:24:49.849Z,1013.54
2018-08-11T13:25:30.497Z,1013.56
2018-08-11T13:26:10.843Z,1013.47
2018-08-11T13:26:51.303Z,1013.48
2018-08-11T13:27:31.657Z,1013.45
2018-08-11T13:28:12.061Z,1013.42
2018-08-11T13:28:52.625Z,1013.45
2018-08-11T13:29:33.061Z,1013.37
2018-08-11T13:30:13.389Z,1013.42
2018-08-11T13:30:53.877Z,1013.53
2018-08-11T13:35:00.592Z,1013.48
2018-08-11T13:35:47.757Z,1013.41
2018-08-11T13:36:28.219Z,1013.4
2018-08-11T13:37:08.659Z,1013.37
2018-08-11T13:37:49.048Z,1013.34
2018-08-11T13:38:29.487Z,1013.45
2018-08-11T13:39:09.901Z,1013.41
2018-08-11T13:39:50.311Z,1013.41
2018-08-11T13:40:30.843Z,1013.39
2018-08-11T13:41:11.691Z,1013.45
2018-08-11T13:41:52.143Z,1013.42
2018-08-11T13:42:32.665Z,1013.4
2018-08-11T13:43:13.325Z,1013.31
2018-08-11T13:43:53.810Z,1013.37
2018-08-11T13:44:34.196Z,1013.36
2018-08-11T13:45:14.680Z,1013.31
2018-08-11T13:45:55.184Z,1013.3
2018-08-11T13:46:35.555Z,1013.29
2018-08-11T13:47:18.958Z,1013.27
2018-08-11T13:47:59.287Z,1013.27
2018-08-11T13:48:39.743Z,1013.26
2018-08-11T13:49:20.853Z,1013.19
2018-08-11T13:50:01.185Z,1013.22
2018-08-11T13:50:41.574Z,1013.2
2018-08-11T13:51:22.011Z,1013.25
2018-08-11T13:52:02.521Z,1013.22
2018-08-11T13:52:42.959Z,1013.14
2018-08-11T13:53:23.366Z,1013.29
2018-08-11T13:54:03.884Z,1013.2
2018-08-11T13:54:44.496Z,1013.3
2018-08-11T13:55:24.898Z,1013.25
2018-08-11T13:56:05.334Z,1013.27
2018-08-11T13:56:45.755Z,1013.27
2018-08-11T13:57:26.214Z,1013.27
2018-08-11T13:58:06.997Z,1013.18
2018-08-11T13:58:48.244Z,1013.19
2018-08-11T13:59:28.734Z,1013.25
2018-08-11T14:00:09.152Z,1013.19
2018-08-11T14:00:49.648Z,1013.19
2018-08-11T14:01:30.293Z,1013.2
2018-08-11T14:02:10.726Z,1013.2
2018-08-11T14:02:51.442Z,1013.13
2018-08-11T14:03:31.799Z,1013.19
2018-08-11T14:04:12.534Z,1013.15
2018-08-11T14:04:53.005Z,1013.17
2018-08-11T14:05:33.528Z,1013.15
2018-08-11T14:06:14.341Z,1013.18
2018-08-11T14:06:54.909Z,1013.19
2018-08-11T14:07:35.245Z,1013.17
2018-08-11T14:08:15.940Z,1013.16
2018-08-11T14:08:56.327Z,1013.13
2018-08-11T14:09:36.734Z,1013.12
2018-08-11T14:10:17.155Z,1013.14
2018-08-11T14:10:59.289Z,1013.08
2018-08-11T14:11:39.693Z,1013.1
2018-08-11T14:12:20.098Z,1013.07
2018-08-11T14:13:00.748Z,1013.03
2018-08-11T14:13:41.247Z,1013.05
2018-08-11T14:14:21.666Z,1013
2018-08-11T14:15:02.174Z,1013.09
2018-08-11T14:15:42.558Z,1013.03
2018-08-11T14:16:22.981Z,1013.04
2018-08-11T14:18:16.732Z,1013.03
2018-08-11T14:18:58.189Z,1013
2018-08-11T14:19:38.547Z,1012.93
2018-08-11T14:20:19.179Z,1013.03
2018-08-11T14:20:59.789Z,1013.01
2018-08-11T14:21:40.134Z,1013
2018-08-11T14:22:20.582Z,1013.03
2018-08-11T14:23:01.913Z,1013.03
2018-08-11T14:23:42.412Z,1013
2018-08-11T14:24:22.978Z,1013.03
2018-08-11T14:25:03.478Z,1013.05
2018-08-11T14:25:43.911Z,1013.03
2018-08-11T14:26:24.384Z,1013.04
2018-08-11T14:27:04.896Z,1012.98
2018-08-11T14:27:45.337Z,1013
2018-08-11T14:28:25.755Z,1013.05
2018-08-11T14:29:07.120Z,1013.07
2018-08-11T14:29:47.679Z,1012.99
2018-08-11T14:30:28.295Z,1013.04
2018-08-11T14:31:08.664Z,1013.03
2018-08-11T14:33:37.628Z,1012.97
2018-08-11T14:34:19.066Z,1013.01
2018-08-11T14:34:59.464Z,1013.04
2018-08-11T14:35:39.921Z,1013.03
2018-08-11T14:36:20.332Z,1013.04
2018-08-11T14:37:00.712Z,1013.09
2018-08-11T14:39:15.843Z,1013.04
2018-08-11T14:39:55.868Z,1013.04
2018-08-11T14:41:55.197Z,1013.03
2018-08-11T14:42:35.658Z,1013.02
2018-08-11T14:43:16.231Z,1012.99
2018-08-11T14:43:56.571Z,1013
2018-08-11T14:44:37.192Z,1013
2018-08-11T14:45:17.993Z,1012.98
2018-08-11T14:45:58.362Z,1012.95
2018-08-11T14:46:38.772Z,1012.95
2018-08-11T14:47:19.289Z,1012.93
2018-08-11T14:47:59.801Z,1012.9
2018-08-11T14:50:22.267Z,1012.92
2018-08-11T14:51:01.330Z,1012.89
2018-08-11T14:51:41.756Z,1012.93
2018-08-11T14:52:22.146Z,1012.92
2018-08-11T14:53:02.600Z,1012.91
2018-08-11T14:53:42.960Z,1012.92
2018-08-11T14:54:23.417Z,1012.96
2018-08-11T14:55:03.913Z,1012.91
2018-08-11T14:55:44.355Z,1012.94
2018-08-11T14:56:24.917Z,1012.94
2018-08-11T14:57:05.236Z,1012.83
2018-08-11T14:57:45.906Z,1012.91
2018-08-11T14:58:26.565Z,1012.97
2018-08-11T14:59:07.155Z,1012.83
2018-08-11T14:59:47.358Z,1012.85
2018-08-11T15:00:27.840Z,1012.94
2018-08-11T15:01:08.254Z,1012.9
2018-08-11T15:01:48.976Z,1012.91
2018-08-11T15:02:29.742Z,1012.92
2018-08-11T15:03:09.848Z,1012.89
2018-08-11T15:03:50.308Z,1012.87
2018-08-11T15:04:30.675Z,1012.89
2018-08-11T15:05:11.162Z,1012.88
2018-08-11T15:05:52.033Z,1012.91
2018-08-11T15:06:32.411Z,1012.9
2018-08-11T15:07:12.868Z,1012.88
2018-08-11T15:07:53.310Z,1012.88
2018-08-11T15:08:34.218Z,1012.92
2018-08-11T15:09:14.681Z,1012.9
2018-08-11T15:09:55.206Z,1012.91
2018-08-11T15:10:35.713Z,1012.92
2018-08-11T15:11:16.853Z,1012.9
2018-08-11T15:11:57.306Z,1012.92
2018-08-11T15:12:37.710Z,1012.93
2018-08-11T15:13:18.117Z,1012.89
2018-08-11T15:15:31.552Z,1012.9
2018-08-11T15:16:14.377Z,1012.8
2018-08-11T15:16:54.581Z,1012.85
2018-08-11T15:17:34.999Z,1012.83
2018-08-11T15:18:15.571Z,1012.82
2018-08-11T15:18:55.909Z,1012.84
2018-08-11T15:19:36.295Z,1012.78
2018-08-11T15:20:16.757Z,1012.77
2018-08-11T15:20:57.288Z,1012.8
2018-08-11T15:21:37.677Z,1012.82
2018-08-11T15:22:18.295Z,1012.81
2018-08-11T15:22:59.535Z,1012.86
2018-08-11T15:23:39.837Z,1012.83
2018-08-11T15:24:20.290Z,1012.86
2018-08-11T15:25:03.481Z,1012.76
2018-08-11T15:25:43.936Z,1012.77
2018-08-11T15:26:24.372Z,1012.78
2018-08-11T15:27:05.810Z,1012.78
2018-08-11T15:27:45.391Z,1012.77
2018-08-11T15:28:25.760Z,1012.77
2018-08-11T15:29:06.533Z,1012.78
2018-08-11T15:29:47.099Z,1012.71
2018-08-11T15:30:27.443Z,1012.73
2018-08-11T15:31:09.549Z,1012.77
2018-08-11T15:31:50.006Z,1012.77
2018-08-11T15:32:30.478Z,1012.78
2018-08-11T15:33:10.988Z,1012.75
2018-08-11T15:33:51.370Z,1012.73
2018-08-11T15:34:31.785Z,1012.76
2018-08-11T15:35:12.618Z,1012.74
2018-08-11T15:35:53.360Z,1012.72
2018-08-11T15:36:33.506Z,1012.72
2018-08-11T15:37:13.907Z,1012.71
2018-08-11T15:37:54.447Z,1012.71
2018-08-11T15:38:34.875Z,1012.72
2018-08-11T15:39:15.821Z,1012.72
2018-08-11T15:39:56.188Z,1012.69
2018-08-11T15:40:36.883Z,1012.75
2018-08-11T15:41:17.312Z,1012.75
2018-08-11T15:41:57.882Z,1012.75
2018-08-11T15:42:38.278Z,1012.75
2018-08-11T15:43:18.671Z,1012.73
2018-08-11T15:43:59.159Z,1012.74
2018-08-11T15:46:30.111Z,1012.67
2018-08-11T15:47:09.731Z,1012.72
2018-08-11T15:47:50.567Z,1012.76
2018-08-11T15:48:30.960Z,1012.76
2018-08-11T15:49:11.402Z,1012.73
2018-08-11T15:49:51.787Z,1012.72
2018-08-11T15:50:33.153Z,1012.71
2018-08-11T15:51:13.449Z,1012.74
2018-08-11T15:51:54.451Z,1012.7
2018-08-11T15:52:35.590Z,1012.74
2018-08-11T15:53:16.080Z,1012.71
2018-08-11T15:53:56.505Z,1012.75